Time;durP1;ratioP1;P1;durP2;ratioP2;P2;SDS_P1;SDS_P2;PMS_P1;PMS_P2;Temp;Humidity;BMP_temperature;BMP_pressure;BME280_temperature;BME280_humidity;BME280_pressure;Samples;Min_cycle;Max_cycle;Signal;HPM_P1;HPM_P2
2022/08/22 00:02:11;;;;;;;1.80;0.30;;;20.00;67.10;;;;;;4719364;30;20057;-80
2022/08/22 00:05:01;;;;;;;1.92;0.50;;;20.00;67.10;;;;;;4717086;30;20135;-80
2022/08/22 00:07:39;;;;;;;1.30;0.40;;;20.00;67.10;;;;;;4715628;30;20053;-79
2022/08/22 00:10:45;;;;;;;1.00;0.45;;;20.00;67.30;;;;;;4712744;30;20417;-80
2022/08/22 00:13:27;;;;;;;1.67;0.30;;;20.00;67.30;;;;;;4711910;30;20045;-80
2022/08/22 00:16:03;;;;;;;1.70;0.30;;;20.00;68.00;;;;;;4735285;30;20048;-80
2022/08/22 00:18:34;;;;;;;1.23;0.20;;;19.90;67.40;;;;;;4720980;30;20118;-81
2022/08/22 00:21:36;;;;;;;2.33;0.40;;;19.90;67.50;;;;;;4705613;30;20705;-80
2022/08/22 00:24:22;;;;;;;4.07;0.57;;;19.90;67.70;;;;;;4716713;30;20588;-80
2022/08/22 00:27:00;;;;;;;1.88;0.40;;;19.80;67.70;;;;;;4724646;30;20056;-82
2022/08/22 00:29:56;;;;;;;1.65;0.40;;;19.80;67.80;;;;;;4706574;30;20533;-82
2022/08/22 00:32:41;;;;;;;2.53;0.30;;;19.80;67.80;;;;;;4736765;30;20048;-80
2022/08/22 00:35:23;;;;;;;1.70;0.43;;;19.80;68.10;;;;;;4707477;30;20084;-80
2022/08/22 00:38:13;;;;;;;2.20;0.30;;;19.80;68.20;;;;;;4703644;30;20475;-80
2022/08/22 00:40:59;;;;;;;1.40;0.30;;;19.70;68.30;;;;;;4717835;30;20049;-80
2022/08/22 00:44:10;;;;;;;2.60;0.40;;;19.70;68.40;;;;;;4717725;30;20061;-80
2022/08/22 00:47:36;;;;;;;0.90;0.30;;;19.70;68.50;;;;;;4707578;30;20820;-80
2022/08/22 00:50:14;;;;;;;2.25;0.55;;;19.70;69.20;;;;;;4692711;30;20508;-80
2022/08/22 00:52:57;;;;;;;2.75;0.40;;;19.70;68.80;;;;;;4714423;30;20106;-80
2022/08/22 00:55:47;;;;;;;1.00;0.30;;;19.60;68.80;;;;;;4721972;30;20053;-80
2022/08/22 00:58:28;;;;;;;3.28;0.45;;;19.60;68.90;;;;;;4703050;30;20103;-80
2022/08/22 01:01:00;;;;;;;;;;;19.60;69.00;;;;;;4703634;30;20111;-80
2022/08/22 01:03:45;;;;;;;2.80;0.38;;;19.60;69.60;;;;;;4717449;30;20674;-80
2022/08/22 01:06:53;;;;;;;1.77;0.30;;;19.50;69.20;;;;;;4717101;30;20381;-80
2022/08/22 01:09:45;;;;;;;1.77;0.30;;;19.50;69.30;;;;;;4713258;30;20053;-80
2022/08/22 01:12:21;;;;;;;2.22;0.40;;;19.50;69.30;;;;;;4700139;30;20061;-81
2022/08/22 01:14:56;;;;;;;1.33;0.38;;;19.50;69.50;;;;;;4730406;30;20512;-80
2022/08/22 01:18:05;;;;;;;0.88;0.40;;;19.50;69.60;;;;;;4716001;30;20053;-80
2022/08/22 01:20:46;;;;;;;4.13;0.43;;;19.50;69.60;;;;;;4700925;30;20049;-81
2022/08/22 01:23:34;;;;;;;2.28;0.43;;;19.50;69.70;;;;;;4728121;30;20093;-82
2022/08/22 01:26:34;;;;;;;2.88;0.38;;;19.50;69.80;;;;;;4717246;30;20053;-82
2022/08/22 01:29:05;;;;;;;1.33;0.40;;;19.50;69.80;;;;;;4706555;30;20488;-82
2022/08/22 01:31:43;;;;;;;1.30;0.30;;;19.50;69.90;;;;;;4717062;30;20189;-80
2022/08/22 01:34:34;;;;;;;1.50;0.43;;;19.50;70.00;;;;;;4706495;30;20530;-81
2022/08/22 01:37:20;;;;;;;1.95;0.30;;;19.50;70.00;;;;;;4716795;30;20045;-82
2022/08/22 01:40:20;;;;;;;2.53;0.55;;;19.50;70.00;;;;;;4710397;30;20053;-82
2022/08/22 01:43:10;;;;;;;2.45;0.50;;;19.50;70.00;;;;;;4700347;30;20105;-82
2022/08/22 01:45:50;;;;;;;1.83;0.43;;;19.50;70.10;;;;;;4728477;30;20127;-82
2022/08/22 01:48:32;;;;;;;1.77;0.30;;;19.50;70.30;;;;;;4716960;30;20055;-82
2022/08/22 01:51:16;;;;;;;3.13;0.50;;;19.50;70.40;;;;;;4716546;30;20057;-82
2022/08/22 01:54:08;;;;;;;1.52;0.30;;;19.50;70.40;;;;;;4695278;30;20053;-82
2022/08/22 01:56:43;;;;;;;;;;;19.50;70.40;;;;;;4725150;30;20431;-82
2022/08/22 01:59:28;;;;;;;1.65;0.30;;;19.40;70.40;;;;;;4713274;30;20446;-83
2022/08/22 02:02:28;;;;;;;2.90;0.57;;;19.40;70.60;;;;;;4713677;30;20055;-82
2022/08/22 02:05:12;;;;;;;3.58;0.50;;;19.50;70.70;;;;;;4702285;30;20076;-83
2022/08/22 02:07:44;;;;;;;2.88;0.40;;;19.50;70.70;;;;;;4723698;30;20065;-82
2022/08/22 02:10:37;;;;;;;1.45;0.40;;;19.50;70.70;;;;;;4704097;30;20081;-83
2022/08/22 02:13:32;;;;;;;1.88;0.40;;;19.50;70.70;;;;;;4722750;30;20119;-82
2022/08/22 02:16:13;;;;;;;2.05;0.52;;;19.50;70.80;;;;;;4713552;30;20095;-83
2022/08/22 02:18:53;;;;;;;2.50;0.50;;;19.50;70.90;;;;;;4718266;30;20068;-82
2022/08/22 02:21:38;;;;;;;1.90;0.50;;;19.50;71.00;;;;;;4716400;30;20149;-83
2022/08/22 02:24:24;;;;;;;2.20;0.40;;;19.50;71.10;;;;;;4722789;30;20057;-82
2022/08/22 02:27:28;;;;;;;2.60;0.40;;;19.50;71.10;;;;;;4691524;30;20397;-82
2022/08/22 02:30:24;;;;;;;2.22;0.50;;;19.50;71.10;;;;;;4720939;30;20060;-82
2022/08/22 02:33:11;;;;;;;2.05;0.50;;;19.40;71.10;;;;;;4738106;30;20037;-82
2022/08/22 02:35:58;;;;;;;1.83;0.52;;;19.40;71.20;;;;;;4713042;30;20060;-82
2022/08/22 02:38:48;;;;;;;0.60;0.25;;;19.40;71.20;;;;;;4701818;30;20081;-82
2022/08/22 02:41:34;;;;;;;1.40;0.50;;;19.50;71.30;;;;;;4715700;30;20048;-82
2022/08/22 02:44:36;;;;;;;1.73;0.40;;;19.40;71.30;;;;;;4715841;30;20057;-82
2022/08/22 02:47:14;;;;;;;1.35;0.40;;;19.40;71.40;;;;;;4707236;30;20506;-83
2022/08/22 02:49:59;;;;;;;1.85;0.47;;;19.40;71.50;;;;;;4715724;30;20056;-83
2022/08/22 02:53:01;;;;;;;2.08;0.40;;;19.50;71.50;;;;;;4709228;30;20053;-82
2022/08/22 02:55:37;;;;;;;1.40;0.38;;;19.40;71.50;;;;;;4728891;30;20053;-82
2022/08/22 02:58:25;;;;;;;2.80;0.60;;;19.40;71.60;;;;;;4701256;30;20470;-82
2022/08/22 03:01:01;;;;;;;1.30;0.40;;;19.50;71.60;;;;;;4701259;30;20049;-83
2022/08/22 03:03:37;;;;;;;1.98;0.40;;;19.40;71.60;;;;;;4715664;30;20057;-83
2022/08/22 03:06:25;;;;;;;1.40;0.50;;;19.40;71.70;;;;;;4715541;30;20053;-82
2022/08/22 03:09:07;;;;;;;1.40;0.50;;;19.40;71.80;;;;;;4711770;30;20060;-83
2022/08/22 03:11:42;;;;;;;1.80;0.47;;;19.40;71.80;;;;;;4710540;30;20076;-82
2022/08/22 03:14:09;;;;;;;2.80;0.40;;;19.40;71.90;;;;;;4715317;30;20053;-82
2022/08/22 03:17:04;;;;;;;2.13;0.60;;;19.40;71.90;;;;;;4715574;30;20076;-83
2022/08/22 03:20:20;;;;;;;2.10;0.40;;;19.40;71.90;;;;;;4724207;30;20065;-82
2022/08/22 03:22:58;;;;;;;2.75;0.50;;;19.40;72.00;;;;;;4692066;30;20420;-83
2022/08/22 03:26:05;;;;;;;2.15;0.40;;;19.30;72.10;;;;;;4714922;30;20073;-83
2022/08/22 03:29:11;;;;;;;2.08;0.52;;;19.30;72.20;;;;;;4729471;30;20049;-83
2022/08/22 03:32:11;;;;;;;2.00;0.63;;;19.30;72.20;;;;;;4694755;30;20053;-83
2022/08/22 03:35:04;;;;;;;2.60;0.63;;;19.30;72.30;;;;;;4729501;30;20061;-83
2022/08/22 03:37:37;;;;;;;3.17;0.65;;;19.30;72.50;;;;;;4715094;30;20045;-83
2022/08/22 03:40:30;;;;;;;1.42;0.40;;;19.30;72.60;;;;;;4715484;30;20045;-83
2022/08/22 03:43:09;;;;;;;2.30;0.60;;;19.30;72.50;;;;;;4709608;30;20048;-83
2022/08/22 03:46:08;;;;;;;2.97;0.55;;;19.20;72.60;;;;;;4710194;30;20072;-82
2022/08/22 03:49:06;;;;;;;2.00;0.45;;;19.20;72.60;;;;;;4715257;30;20480;-82
2022/08/22 03:52:30;;;;;;;1.95;0.52;;;19.20;72.70;;;;;;4715122;30;20061;-83
2022/08/22 03:55:13;;;;;;;2.50;0.60;;;19.20;72.70;;;;;;4656907;30;20409;-82
2022/08/22 03:57:58;;;;;;;1.30;0.52;;;19.20;72.90;;;;;;4640098;30;20263;-82
2022/08/22 04:00:52;;;;;;;3.05;0.50;;;19.20;72.90;;;;;;4709387;30;20124;-82
2022/08/22 04:04:00;;;;;;;1.40;0.40;;;19.20;73.00;;;;;;4713391;30;20415;-82
2022/08/22 04:06:58;;;;;;;2.90;0.77;;;19.10;73.10;;;;;;4649163;30;20839;-82
2022/08/22 04:09:51;;;;;;;2.33;0.50;;;19.10;73.10;;;;;;4724679;30;20053;-82
2022/08/22 04:12:49;;;;;;;0.73;0.40;;;19.10;73.20;;;;;;4717690;30;20509;-82
2022/08/22 04:15:40;;;;;;;2.35;0.55;;;19.10;73.30;;;;;;4714686;30;20144;-83
2022/08/22 04:18:23;;;;;;;1.10;0.35;;;19.10;73.40;;;;;;4714943;30;20041;-83
2022/08/22 04:21:00;;;;;;;1.65;0.50;;;19.10;73.50;;;;;;4700327;30;20055;-82
2022/08/22 04:23:45;;;;;;;2.50;0.50;;;19.10;73.60;;;;;;4699934;30;20158;-82
2022/08/22 04:26:15;;;;;;;1.77;0.50;;;19.10;73.60;;;;;;4689292;30;20053;-83
2022/08/22 04:28:51;;;;;;;1.85;0.50;;;19.10;73.60;;;;;;4724908;30;20041;-83
2022/08/22 04:31:31;;;;;;;2.50;0.50;;;19.10;73.70;;;;;;4706420;30;20423;-83
2022/08/22 04:34:01;;;;;;;2.25;0.50;;;19.10;73.70;;;;;;4729561;30;20133;-82
2022/08/22 04:36:47;;;;;;;0.95;0.45;;;19.10;73.70;;;;;;4707609;30;20069;-83
2022/08/22 04:39:20;;;;;;;1.58;0.50;;;19.10;73.70;;;;;;4701457;30;20148;-83
2022/08/22 04:42:13;;;;;;;2.33;0.60;;;19.10;73.80;;;;;;4714550;30;20499;-83
2022/08/22 04:45:16;;;;;;;2.63;0.60;;;19.10;73.80;;;;;;4708048;30;20183;-83
2022/08/22 04:48:08;;;;;;;1.10;0.60;;;19.20;73.90;;;;;;4711404;30;20054;-83
2022/08/22 04:50:49;;;;;;;1.45;0.65;;;19.20;73.80;;;;;;4714666;30;20056;-83
2022/08/22 04:53:41;;;;;;;1.50;0.47;;;19.10;73.90;;;;;;4704047;30;20056;-82
2022/08/22 04:56:50;;;;;;;1.27;0.52;;;19.20;73.90;;;;;;4717440;30;20061;-83
2022/08/22 04:59:23;;;;;;;2.05;0.65;;;19.20;73.90;;;;;;4702852;30;20049;-83
2022/08/22 05:02:04;;;;;;;1.85;0.50;;;19.10;73.90;;;;;;4703335;30;20053;-83
2022/08/22 05:04:44;;;;;;;4.57;0.60;;;19.10;74.00;;;;;;4703004;30;20045;-85
2022/08/22 05:07:23;;;;;;;1.85;0.45;;;19.10;74.10;;;;;;4717591;30;20049;-86
2022/08/22 05:09:57;;;;;;;1.17;0.30;;;19.20;74.10;;;;;;4717290;30;20140;-83
2022/08/22 05:12:43;;;;;;;2.50;0.60;;;19.20;74.20;;;;;;4702970;30;20067;-84
2022/08/22 05:15:29;;;;;;;3.08;0.60;;;19.20;74.20;;;;;;4716942;30;20064;-83
2022/08/22 05:18:03;;;;;;;1.60;0.50;;;19.20;74.20;;;;;;4717116;30;20059;-83
2022/08/22 05:20:30;;;;;;;2.25;0.50;;;19.20;74.30;;;;;;4711673;30;20115;-81
2022/08/22 05:23:02;;;;;;;2.80;0.60;;;19.20;74.30;;;;;;4704243;30;20141;-83
2022/08/22 05:25:44;;;;;;;1.88;0.40;;;19.20;74.30;;;;;;4702165;30;20487;-85
2022/08/22 05:28:21;;;;;;;2.40;0.52;;;19.20;74.20;;;;;;4718736;30;20080;-84
2022/08/22 05:30:50;;;;;;;3.45;0.77;;;19.20;74.20;;;;;;4719540;30;20057;-93
2022/08/22 05:33:25;;;;;;;2.47;0.70;;;19.20;74.20;;;;;;4705850;30;20053;-90
2022/08/22 05:36:10;;;;;;;2.67;0.50;;;19.20;74.20;;;;;;4733937;30;20052;-89
2022/08/22 05:38:44;;;;;;;2.25;0.60;;;19.20;74.30;;;;;;4721738;30;20052;-90
2022/08/22 05:41:19;;;;;;;1.98;0.50;;;19.20;74.30;;;;;;4720179;30;20132;-88
2022/08/22 05:43:54;;;;;;;2.05;0.43;;;19.20;74.20;;;;;;4727509;30;20140;-90
2022/08/22 05:46:27;;;;;;;3.30;0.70;;;19.20;74.30;;;;;;4705081;30;20042;-83
2022/08/22 05:49:01;;;;;;;2.53;0.75;;;19.30;74.30;;;;;;4712773;30;20521;-84
2022/08/22 05:52:18;;;;;;;3.70;0.60;;;19.30;74.20;;;;;;4719282;30;20486;-82
2022/08/22 05:55:01;;;;;;;1.52;0.63;;;19.30;74.00;;;;;;4687808;30;20049;-83
2022/08/22 05:57:38;;;;;;;2.60;0.60;;;19.30;74.10;;;;;;4713212;30;20080;-83
2022/08/22 06:00:17;;;;;;;3.13;0.68;;;19.30;74.10;;;;;;4713503;30;20056;-82
2022/08/22 06:03:14;;;;;;;1.50;0.60;;;19.30;74.10;;;;;;4728985;30;20473;-83
2022/08/22 06:05:45;;;;;;;2.65;0.80;;;19.30;74.00;;;;;;4717620;30;20071;-83
2022/08/22 06:08:35;;;;;;;1.73;0.45;;;19.40;74.20;;;;;;4734515;30;20123;-82
2022/08/22 06:11:24;;;;;;;3.53;0.73;;;19.40;74.00;;;;;;4719360;30;20160;-82
2022/08/22 06:14:17;;;;;;;2.53;0.90;;;19.40;73.90;;;;;;4718917;30;20057;-83
2022/08/22 06:17:33;;;;;;;2.53;0.50;;;19.50;73.80;;;;;;4730377;30;20115;-82
2022/08/22 06:20:04;;;;;;;2.22;0.80;;;19.50;73.70;;;;;;4699880;30;20080;-83
2022/08/22 06:22:36;;;;;;;1.88;0.50;;;19.60;73.70;;;;;;4707416;30;20386;-83
2022/08/22 06:25:07;;;;;;;;;;;19.60;73.60;;;;;;4719560;30;20052;-83
2022/08/22 06:27:35;;;;;;;2.33;0.63;;;19.70;73.50;;;;;;4718832;30;19926;-83
2022/08/22 06:30:04;;;;;;;3.30;0.52;;;19.70;73.40;;;;;;4704356;30;20049;-83
2022/08/22 06:32:44;;;;;;;1.35;0.50;;;19.80;73.20;;;;;;4719289;30;20056;-83
2022/08/22 06:36:29;;;;;;;4.43;0.70;;;19.90;73.00;;;;;;4718406;30;20075;-83
2022/08/22 06:38:28;;;;;;;0.98;0.60;;;20.00;72.90;;;;;;4718446;30;20414;-83
2022/08/22 06:40:57;;;;;;;2.35;0.50;;;20.10;72.80;;;;;;4718497;30;20052;-82
2022/08/22 06:43:25;;;;;;;2.38;0.80;;;20.10;72.60;;;;;;4718995;30;20045;-82
2022/08/22 06:45:53;;;;;;;2.90;0.60;;;20.20;72.50;;;;;;4718533;30;20071;-83
2022/08/22 06:48:22;;;;;;;2.85;0.60;;;20.20;72.70;;;;;;4704369;30;20063;-82
2022/08/22 06:50:55;;;;;;;1.35;0.60;;;20.20;72.30;;;;;;4714131;30;20045;-82
2022/08/22 06:53:25;;;;;;;2.35;0.98;;;20.20;72.20;;;;;;4718130;30;20544;-82
2022/08/22 06:55:55;;;;;;;1.95;0.60;;;20.30;72.20;;;;;;4714974;30;20868;-82
2022/08/22 06:58:27;;;;;;;1.60;0.50;;;20.30;72.20;;;;;;4718598;30;20565;-82
2022/08/22 07:01:07;;;;;;;1.00;0.50;;;20.40;72.00;;;;;;4728696;30;20053;-82
2022/08/22 07:04:03;;;;;;;1.63;0.70;;;20.40;71.80;;;;;;4728926;30;20053;-82
2022/08/22 07:06:35;;;;;;;2.17;0.57;;;20.50;71.80;;;;;;4717805;30;20127;-84
2022/08/22 07:09:04;;;;;;;1.52;0.70;;;20.50;71.60;;;;;;4704249;30;20063;-83
2022/08/22 07:11:38;;;;;;;2.58;0.70;;;20.60;71.50;;;;;;4734123;30;20045;-83
2022/08/22 07:14:10;;;;;;;2.88;0.60;;;20.70;71.40;;;;;;4718573;30;20055;-84
2022/08/22 07:16:56;;;;;;;2.08;0.70;;;20.70;71.30;;;;;;4718461;30;20051;-81
2022/08/22 07:19:44;;;;;;;2.08;0.50;;;20.70;71.10;;;;;;4718133;30;20756;-82
2022/08/22 07:22:15;;;;;;;1.08;0.55;;;20.80;71.00;;;;;;4701413;30;20414;-81
2022/08/22 07:24:50;;;;;;;1.33;0.50;;;20.80;70.90;;;;;;4733778;30;20122;-82
2022/08/22 07:27:55;;;;;;;2.88;0.65;;;20.90;70.90;;;;;;4703857;30;20498;-82
2022/08/22 07:30:25;;;;;;;1.45;0.50;;;20.90;70.60;;;;;;4713723;30;20052;-82
2022/08/22 07:32:54;;;;;;;;;;;20.90;70.60;;;;;;4715805;30;20045;-81
2022/08/22 07:35:42;;;;;;;1.95;0.40;;;21.00;70.60;;;;;;4718275;30;19949;-81
2022/08/22 07:38:44;;;;;;;1.00;0.50;;;21.00;70.40;;;;;;4715664;30;20498;-90
2022/08/22 07:41:25;;;;;;;2.95;0.50;;;21.10;70.20;;;;;;4705065;30;20113;-90
2022/08/22 07:44:07;;;;;;;2.75;0.70;;;21.10;70.00;;;;;;4728506;30;20556;-85
2022/08/22 07:46:53;;;;;;;0.85;0.47;;;21.10;69.90;;;;;;4705953;30;20114;-86
2022/08/22 07:49:31;;;;;;;0.93;0.40;;;21.20;69.80;;;;;;4712178;30;20056;-86
2022/08/22 07:52:07;;;;;;;2.67;0.55;;;21.20;69.70;;;;;;4718412;30;20139;-87
2022/08/22 07:54:40;;;;;;;2.22;0.60;;;21.20;69.60;;;;;;4718129;30;20080;-86
2022/08/22 07:57:13;;;;;;;3.17;0.50;;;21.20;69.60;;;;;;4719387;30;20060;-85
2022/08/22 07:59:50;;;;;;;1.55;0.50;;;21.20;69.60;;;;;;4734385;30;20045;-86
2022/08/22 08:02:19;;;;;;;1.25;0.50;;;21.20;69.40;;;;;;4716568;30;20057;-85
2022/08/22 08:04:49;;;;;;;2.25;0.70;;;21.20;69.40;;;;;;4701675;30;20103;-86
2022/08/22 08:07:21;;;;;;;1.00;0.40;;;21.40;69.90;;;;;;4715792;30;20102;-85
2022/08/22 08:10:05;;;;;;;3.13;0.60;;;21.50;68.90;;;;;;4716869;30;21911;-86
2022/08/22 08:12:44;;;;;;;3.63;0.63;;;21.60;68.50;;;;;;4713160;30;20118;-85
2022/08/22 08:15:31;;;;;;;2.10;0.60;;;21.70;68.50;;;;;;4727391;30;20076;-86
2022/08/22 08:18:04;;;;;;;2.45;0.60;;;21.70;68.50;;;;;;4719275;30;20064;-85
2022/08/22 08:20:34;;;;;;;1.48;0.50;;;21.70;68.40;;;;;;4715825;30;20135;-85
2022/08/22 08:23:05;;;;;;;2.85;0.50;;;21.70;68.40;;;;;;4695621;30;20102;-85
2022/08/22 08:25:53;;;;;;;2.10;0.85;;;21.70;68.40;;;;;;4717774;30;20433;-86
2022/08/22 08:28:34;;;;;;;1.55;0.50;;;21.80;68.40;;;;;;4717616;30;20078;-84
2022/08/22 08:31:06;;;;;;;1.13;0.50;;;21.80;68.30;;;;;;4706170;30;20401;-84
2022/08/22 08:33:35;;;;;;;;;;;21.90;68.00;;;;;;4723306;30;20056;-85
2022/08/22 08:36:13;;;;;;;0.80;0.40;;;22.10;67.90;;;;;;4708978;30;19926;-85
2022/08/22 08:38:51;;;;;;;1.67;0.52;;;22.30;67.50;;;;;;4720854;30;20121;-85
2022/08/22 08:41:53;;;;;;;1.10;0.47;;;22.40;67.80;;;;;;4730939;30;20048;-85
2022/08/22 08:45:06;;;;;;;2.65;0.40;;;22.60;66.80;;;;;;4733995;30;20048;-85
2022/08/22 08:48:15;;;;;;;1.65;0.60;;;22.70;66.50;;;;;;4719948;30;20060;-85
2022/08/22 08:51:15;;;;;;;1.98;0.40;;;22.70;66.40;;;;;;4720614;30;20056;-85
2022/08/22 08:53:53;;;;;;;2.55;0.60;;;22.70;66.60;;;;;;4691452;30;20069;-86
2022/08/22 08:56:39;;;;;;;2.60;0.47;;;22.70;66.70;;;;;;4720345;30;20053;-84
2022/08/22 08:59:26;;;;;;;1.10;0.50;;;22.60;66.80;;;;;;4720108;30;20143;-85
2022/08/22 09:02:08;;;;;;;1.98;0.77;;;22.60;66.80;;;;;;4720000;30;20058;-85
2022/08/22 09:04:58;;;;;;;2.47;0.60;;;22.60;66.80;;;;;;4729524;30;20574;-86
2022/08/22 09:07:55;;;;;;;1.83;0.70;;;22.50;67.00;;;;;;4714556;30;20049;-85
2022/08/22 09:11:08;;;;;;;1.77;0.70;;;22.40;67.00;;;;;;4719139;30;20402;-85
2022/08/22 09:14:11;;;;;;;2.70;0.40;;;22.40;67.00;;;;;;4702545;30;20056;-86
2022/08/22 09:17:00;;;;;;;1.27;0.50;;;22.50;66.90;;;;;;4714940;30;20068;-85
2022/08/22 09:20:09;;;;;;;1.58;0.60;;;22.60;66.70;;;;;;4705897;30;20048;-85
2022/08/22 09:22:57;;;;;;;1.42;0.60;;;22.80;66.40;;;;;;4717780;30;20049;-86
2022/08/22 09:25:58;;;;;;;2.53;0.63;;;22.90;66.20;;;;;;4720065;30;20056;-85
2022/08/22 09:28:50;;;;;;;2.45;0.63;;;23.10;65.90;;;;;;4711264;30;20060;-86
2022/08/22 09:31:43;;;;;;;1.20;0.40;;;23.40;65.60;;;;;;4702534;30;20053;-86
2022/08/22 09:34:42;;;;;;;1.95;0.47;;;23.60;65.30;;;;;;4702936;30;20069;-86
2022/08/22 09:37:37;;;;;;;1.73;0.70;;;23.90;64.90;;;;;;4730962;30;20049;-85
2022/08/22 09:40:12;;;;;;;2.58;0.65;;;24.10;64.40;;;;;;4708875;30;20521;-85
2022/08/22 09:43:20;;;;;;;1.48;0.50;;;24.30;64.00;;;;;;4715268;30;20080;-85
2022/08/22 09:46:14;;;;;;;1.92;0.50;;;24.30;63.80;;;;;;4727756;30;20153;-85
2022/08/22 09:49:00;;;;;;;4.10;0.57;;;24.50;63.70;;;;;;4723064;30;20057;-86
2022/08/22 09:51:37;;;;;;;1.45;0.50;;;24.50;63.50;;;;;;4728786;30;20123;-86
2022/08/22 09:54:10;;;;;;;2.25;0.50;;;24.50;63.30;;;;;;4714063;30;20058;-86
2022/08/22 09:57:13;;;;;;;1.08;0.45;;;24.50;63.30;;;;;;4714164;30;20054;-86
2022/08/22 09:59:50;;;;;;;2.65;0.38;;;24.50;63.00;;;;;;4714111;30;20160;-86
2022/08/22 10:02:30;;;;;;;2.08;0.40;;;24.50;62.90;;;;;;4702551;30;20058;-86
2022/08/22 10:05:29;;;;;;;3.13;0.50;;;24.50;62.70;;;;;;4715475;30;20152;-86
2022/08/22 10:08:25;;;;;;;1.52;0.35;;;24.60;62.30;;;;;;4715218;30;20065;-86
2022/08/22 10:10:58;;;;;;;2.22;0.50;;;24.70;61.60;;;;;;4731993;30;20191;-86
2022/08/22 10:13:43;;;;;;;1.65;0.50;;;24.70;61.40;;;;;;4716453;30;20049;-85
2022/08/22 10:16:23;;;;;;;1.25;0.40;;;24.70;61.20;;;;;;4722835;30;20151;-86
2022/08/22 10:19:32;;;;;;;1.63;0.50;;;24.70;61.00;;;;;;4716508;30;20517;-85
2022/08/22 10:22:19;;;;;;;3.80;0.80;;;24.70;60.80;;;;;;4663796;30;20461;-86
2022/08/22 10:25:18;;;;;;;3.10;0.68;;;24.70;60.50;;;;;;4701255;30;20076;-86
2022/08/22 10:27:58;;;;;;;1.85;0.50;;;24.90;60.20;;;;;;4724942;30;20064;-85
2022/08/22 10:30:41;;;;;;;1.58;0.40;;;24.90;59.80;;;;;;4718581;30;20057;-85
2022/08/22 10:33:20;;;;;;;1.95;0.43;;;25.00;59.60;;;;;;4716353;30;20060;-85
2022/08/22 10:36:03;;;;;;;2.15;0.60;;;25.10;59.20;;;;;;4715907;30;20069;-85
2022/08/22 10:38:31;;;;;;;;;;;25.00;59.10;;;;;;4702090;30;20064;-86
2022/08/22 10:41:35;;;;;;;2.03;0.47;;;25.00;59.90;;;;;;4740740;30;20418;-85
2022/08/22 10:44:23;;;;;;;1.73;0.50;;;25.10;59.10;;;;;;4715751;30;20045;-86
2022/08/22 10:47:15;;;;;;;2.20;0.40;;;25.10;58.80;;;;;;4725997;30;20071;-86
2022/08/22 10:49:52;;;;;;;1.23;0.55;;;25.10;58.60;;;;;;4704059;30;20060;-86
2022/08/22 10:52:38;;;;;;;1.70;0.45;;;25.10;58.40;;;;;;4701233;30;20136;-87
2022/08/22 10:55:16;;;;;;;1.58;0.52;;;25.00;58.30;;;;;;4710521;30;20057;-87
2022/08/22 10:58:17;;;;;;;2.25;0.45;;;25.00;58.40;;;;;;4715950;30;20060;-87
2022/08/22 11:00:56;;;;;;;2.00;0.60;;;25.00;58.10;;;;;;4701953;30;20057;-86
2022/08/22 11:03:38;;;;;;;1.60;0.60;;;25.00;58.20;;;;;;4714960;30;20152;-86
2022/08/22 11:06:28;;;;;;;1.55;0.50;;;25.10;57.70;;;;;;4711482;30;20771;-87
2022/08/22 11:09:13;;;;;;;1.27;0.45;;;25.10;57.60;;;;;;4703761;30;20064;-86
2022/08/22 11:11:46;;;;;;;1.88;0.52;;;25.20;57.50;;;;;;4719350;30;20057;-86
2022/08/22 11:14:31;;;;;;;1.65;0.43;;;25.40;57.20;;;;;;4704852;30;20400;-87
2022/08/22 11:17:13;;;;;;;1.65;0.50;;;25.60;56.90;;;;;;4714591;30;20044;-87
2022/08/22 11:20:00;;;;;;;1.85;0.60;;;25.70;56.50;;;;;;4704991;30;20053;-87
2022/08/22 11:23:02;;;;;;;1.83;0.32;;;25.80;56.40;;;;;;4726603;30;20510;-86
2022/08/22 11:25:57;;;;;;;1.77;0.40;;;26.00;56.10;;;;;;4697964;30;20440;-86
2022/08/22 11:32:44;;;;;;;0.60;0.30;;;26.70;55.20;;;;;;4710233;30;20057;-82
2022/08/22 11:36:00;;;;;;;1.35;0.45;;;27.20;54.30;;;;;;4715029;30;20076;-82
2022/08/22 11:39:58;;;;;;;2.03;0.40;;;27.40;53.50;;;;;;4687414;30;20048;-82
2022/08/22 11:42:43;;;;;;;1.10;0.30;;;28.30;52.50;;;;;;4704085;30;20053;-87
2022/08/22 11:45:25;;;;;;;1.85;0.40;;;29.10;51.40;;;;;;4711400;30;20146;-87
2022/08/22 11:48:08;;;;;;;1.15;0.30;;;29.70;50.30;;;;;;4716206;30;20103;-84
2022/08/22 11:50:49;;;;;;;2.22;0.50;;;29.80;49.80;;;;;;4715412;30;20049;-83
2022/08/22 11:53:35;;;;;;;2.00;0.60;;;29.70;49.90;;;;;;4695459;30;20144;-84
2022/08/22 11:56:58;;;;;;;1.17;0.40;;;29.40;49.40;;;;;;4700879;30;20054;-86
2022/08/22 11:59:32;;;;;;;1.70;0.70;;;29.40;50.20;;;;;;4712443;30;20475;-81
2022/08/22 12:02:15;;;;;;;1.40;0.50;;;29.00;49.60;;;;;;4715239;30;20056;-82
2022/08/22 12:05:02;;;;;;;2.08;0.40;;;29.30;49.60;;;;;;4705124;30;20125;-83
2022/08/22 12:07:38;;;;;;;1.25;0.38;;;29.20;49.30;;;;;;4718215;30;20148;-82
2022/08/22 12:10:28;;;;;;;1.92;0.32;;;28.70;49.70;;;;;;4717559;30;20119;-81
2022/08/22 12:13:06;;;;;;;1.95;0.38;;;28.50;50.10;;;;;;4718446;30;20917;-82
2022/08/22 12:15:52;;;;;;;1.15;0.30;;;28.40;50.50;;;;;;4705965;30;20045;-82
2022/08/22 12:18:49;;;;;;;2.55;0.50;;;28.30;50.50;;;;;;4720979;30;20044;-81
2022/08/22 12:22:15;;;;;;;1.38;0.40;;;28.20;50.70;;;;;;4702287;30;20106;-81
2022/08/22 12:24:57;;;;;;;1.10;0.30;;;28.20;50.80;;;;;;4703176;30;20488;-81
2022/08/22 12:27:53;;;;;;;1.00;0.20;;;28.10;50.80;;;;;;4719485;30;20061;-80
2022/08/22 12:30:40;;;;;;;1.40;0.40;;;28.10;50.80;;;;;;4703389;30;20053;-82
2022/08/22 12:33:27;;;;;;;1.20;0.50;;;28.10;50.80;;;;;;4718226;30;20125;-81
2022/08/22 12:35:55;;;;;;;1.05;0.50;;;28.20;50.70;;;;;;4723134;30;20072;-81
2022/08/22 12:38:28;;;;;;;1.33;0.40;;;28.30;50.70;;;;;;4717956;30;20738;-81
2022/08/22 12:41:33;;;;;;;1.23;0.40;;;28.40;50.20;;;;;;4706653;30;20080;-81
2022/08/22 12:44:26;;;;;;;1.33;0.28;;;28.50;50.20;;;;;;4714098;30;20136;-80
2022/08/22 12:47:21;;;;;;;1.00;0.40;;;28.50;50.00;;;;;;4704103;30;20053;-82
2022/08/22 12:50:18;;;;;;;0.85;0.30;;;28.50;49.90;;;;;;4718074;30;20060;-82
2022/08/22 12:52:50;;;;;;;1.13;0.40;;;28.50;49.90;;;;;;4715357;30;20060;-81
2022/08/22 12:55:55;;;;;;;2.00;0.40;;;28.50;49.90;;;;;;4717793;30;20067;-81
2022/08/22 12:58:33;;;;;;;1.08;0.38;;;28.60;49.60;;;;;;4712173;30;20415;-81
2022/08/22 13:01:05;;;;;;;3.45;0.82;;;28.80;49.40;;;;;;4728075;30;20084;-81
2022/08/22 13:03:43;;;;;;;0.85;0.40;;;28.70;49.10;;;;;;4723779;30;20840;-81
2022/08/22 13:06:32;;;;;;;0.85;0.40;;;28.70;49.00;;;;;;4703394;30;20177;-81
2022/08/22 13:09:01;;;;;;;0.70;0.30;;;28.80;48.90;;;;;;4718001;30;20057;-81
2022/08/22 13:11:37;;;;;;;1.13;0.40;;;28.90;48.90;;;;;;4726168;30;20539;-81
2022/08/22 13:14:07;;;;;;;1.63;0.50;;;28.90;48.60;;;;;;4730167;30;20453;-81
2022/08/22 13:16:50;;;;;;;1.80;0.40;;;28.80;48.70;;;;;;4714137;30;20053;-80
2022/08/22 13:19:25;;;;;;;0.75;0.30;;;28.70;48.60;;;;;;4723905;30;20053;-80
2022/08/22 13:22:16;;;;;;;1.65;0.20;;;28.60;48.60;;;;;;4696601;30;20656;-81
2022/08/22 13:24:57;;;;;;;2.13;0.50;;;28.60;48.60;;;;;;4724935;30;20062;-81
2022/08/22 13:27:33;;;;;;;2.00;0.50;;;28.60;48.50;;;;;;4723176;30;20053;-81
2022/08/22 13:30:17;;;;;;;1.88;0.43;;;28.50;48.40;;;;;;4717033;30;20069;-81
2022/08/22 13:33:00;;;;;;;1.10;0.30;;;28.50;48.40;;;;;;4709036;30;20131;-82
2022/08/22 13:35:38;;;;;;;1.20;0.40;;;28.50;48.40;;;;;;4717055;30;20384;-82
2022/08/22 13:38:25;;;;;;;1.00;0.20;;;28.60;48.20;;;;;;4708215;30;20048;-80
2022/08/22 13:40:56;;;;;;;1.58;0.35;;;28.60;47.90;;;;;;4729544;30;20880;-79
2022/08/22 13:43:28;;;;;;;1.65;0.50;;;28.50;47.80;;;;;;4717318;30;20045;-79
2022/08/22 13:46:07;;;;;;;0.88;0.35;;;28.50;47.90;;;;;;4716748;30;20127;-82
2022/08/22 13:48:47;;;;;;;1.75;0.30;;;28.40;47.80;;;;;;4717067;30;20503;-82
2022/08/22 13:51:31;;;;;;;2.08;0.55;;;28.40;47.80;;;;;;4722033;30;20061;-79
2022/08/22 13:54:22;;;;;;;1.38;0.50;;;28.40;47.70;;;;;;4722127;30;20806;-80
2022/08/22 13:57:08;;;;;;;0.63;0.30;;;28.40;47.60;;;;;;4728851;30;20160;-80
2022/08/22 14:00:12;;;;;;;1.83;0.40;;;28.40;47.60;;;;;;4699990;30;20075;-80
2022/08/22 14:03:16;;;;;;;1.40;0.40;;;28.40;47.60;;;;;;4649458;30;20117;-82
2022/08/22 14:05:49;;;;;;;1.20;0.20;;;28.50;47.30;;;;;;4705104;30;20054;-80
2022/08/22 14:08:27;;;;;;;0.63;0.28;;;28.50;47.30;;;;;;4712047;30;20476;-80
2022/08/22 14:11:09;;;;;;;0.55;0.30;;;28.50;47.20;;;;;;4702760;30;20077;-81
2022/08/22 14:13:58;;;;;;;1.27;0.40;;;28.60;47.00;;;;;;4714106;30;20045;-80
2022/08/22 14:16:51;;;;;;;2.05;0.52;;;28.50;47.00;;;;;;4716400;30;20056;-80
2022/08/22 14:19:35;;;;;;;1.75;0.50;;;28.30;47.00;;;;;;4720697;30;20055;-78
2022/08/22 14:22:24;;;;;;;2.58;0.43;;;28.20;47.30;;;;;;4717153;30;20049;-80
2022/08/22 14:25:03;;;;;;;1.67;0.40;;;28.00;47.50;;;;;;4719804;30;20049;-78
2022/08/22 14:27:46;;;;;;;1.17;0.30;;;28.00;47.60;;;;;;4704056;30;20049;-79